sensor_id;sensor_type;location;lat;lon;timestamp;temperature;humidity
43151;DHT22;28755;51.478;5.702;2023-06-14T00:01:18;19.40;94.40
43151;DHT22;28755;51.478;5.702;2023-06-14T00:03:45;19.30;94.40
43151;DHT22;28755;51.478;5.702;2023-06-14T00:06:12;19.40;94.60
43151;DHT22;28755;51.478;5.702;2023-06-14T00:08:38;19.30;94.50
43151;DHT22;28755;51.478;5.702;2023-06-14T00:11:05;19.20;94.60
43151;DHT22;28755;51.478;5.702;2023-06-14T00:13:30;19.10;94.70
43151;DHT22;28755;51.478;5.702;2023-06-14T00:15:56;19.10;94.70
43151;DHT22;28755;51.478;5.702;2023-06-14T00:18:22;19.00;94.80
43151;DHT22;28755;51.478;5.702;2023-06-14T00:20:52;19.00;94.90
43151;DHT22;28755;51.478;5.702;2023-06-14T00:23:18;19.00;94.90
43151;DHT22;28755;51.478;5.702;2023-06-14T00:25:43;18.90;94.90
43151;DHT22;28755;51.478;5.702;2023-06-14T00:28:09;19.00;95.00
43151;DHT22;28755;51.478;5.702;2023-06-14T00:30:34;18.90;95.00
43151;DHT22;28755;51.478;5.702;2023-06-14T00:33:00;18.80;95.10
43151;DHT22;28755;51.478;5.702;2023-06-14T00:35:26;18.80;95.20
43151;DHT22;28755;51.478;5.702;2023-06-14T00:37:51;18.80;95.20
43151;DHT22;28755;51.478;5.702;2023-06-14T00:40:17;18.80;95.20
43151;DHT22;28755;51.478;5.702;2023-06-14T00:42:43;18.70;95.40
43151;DHT22;28755;51.478;5.702;2023-06-14T00:45:09;18.60;95.70
43151;DHT22;28755;51.478;5.702;2023-06-14T00:47:36;18.50;95.60
43151;DHT22;28755;51.478;5.702;2023-06-14T00:50:03;18.50;95.60
43151;DHT22;28755;51.478;5.702;2023-06-14T00:52:31;18.50;95.80
43151;DHT22;28755;51.478;5.702;2023-06-14T00:54:58;18.50;95.80
43151;DHT22;28755;51.478;5.702;2023-06-14T00:57:23;18.50;95.90
43151;DHT22;28755;51.478;5.702;2023-06-14T00:59:49;18.40;96.00
43151;DHT22;28755;51.478;5.702;2023-06-14T01:02:17;18.30;96.10
43151;DHT22;28755;51.478;5.702;2023-06-14T01:04:45;18.30;96.20
43151;DHT22;28755;51.478;5.702;2023-06-14T01:07:58;18.30;96.30
43151;DHT22;28755;51.478;5.702;2023-06-14T01:10:56;18.30;96.40
43151;DHT22;28755;51.478;5.702;2023-06-14T01:13:35;18.20;96.30
43151;DHT22;28755;51.478;5.702;2023-06-14T01:16:02;18.20;96.40
43151;DHT22;28755;51.478;5.702;2023-06-14T01:18:29;18.10;96.30
43151;DHT22;28755;51.478;5.702;2023-06-14T01:20:55;18.20;96.40
43151;DHT22;28755;51.478;5.702;2023-06-14T01:23:22;18.10;96.40
43151;DHT22;28755;51.478;5.702;2023-06-14T01:25:49;18.00;96.40
43151;DHT22;28755;51.478;5.702;2023-06-14T01:28:19;18.10;96.50
43151;DHT22;28755;51.478;5.702;2023-06-14T01:30:48;18.00;96.50
43151;DHT22;28755;51.478;5.702;2023-06-14T01:33:17;18.00;96.70
43151;DHT22;28755;51.478;5.702;2023-06-14T01:35:46;17.90;96.80
43151;DHT22;28755;51.478;5.702;2023-06-14T01:38:13;17.90;96.80
43151;DHT22;28755;51.478;5.702;2023-06-14T01:40:40;17.90;96.80
43151;DHT22;28755;51.478;5.702;2023-06-14T01:43:08;17.80;96.90
43151;DHT22;28755;51.478;5.702;2023-06-14T01:45:35;17.90;96.90
43151;DHT22;28755;51.478;5.702;2023-06-14T01:48:02;17.80;97.20
43151;DHT22;28755;51.478;5.702;2023-06-14T01:50:30;17.80;97.00
43151;DHT22;28755;51.478;5.702;2023-06-14T01:52:56;17.70;96.90
43151;DHT22;28755;51.478;5.702;2023-06-14T01:55:22;17.70;97.10
43151;DHT22;28755;51.478;5.702;2023-06-14T01:57:50;17.70;97.10
43151;DHT22;28755;51.478;5.702;2023-06-14T02:00:16;17.80;97.40
43151;DHT22;28755;51.478;5.702;2023-06-14T02:02:43;17.70;97.30
43151;DHT22;28755;51.478;5.702;2023-06-14T02:05:09;17.60;97.30
43151;DHT22;28755;51.478;5.702;2023-06-14T02:07:35;17.60;97.30
43151;DHT22;28755;51.478;5.702;2023-06-14T02:10:01;17.60;97.40
43151;DHT22;28755;51.478;5.702;2023-06-14T02:12:27;17.50;97.60
43151;DHT22;28755;51.478;5.702;2023-06-14T02:14:52;17.50;97.70
43151;DHT22;28755;51.478;5.702;2023-06-14T02:17:19;17.50;97.80
43151;DHT22;28755;51.478;5.702;2023-06-14T02:19:45;17.40;97.90
43151;DHT22;28755;51.478;5.702;2023-06-14T02:22:11;17.40;97.90
43151;DHT22;28755;51.478;5.702;2023-06-14T02:24:36;17.50;98.20
43151;DHT22;28755;51.478;5.702;2023-06-14T02:27:02;17.40;98.10
43151;DHT22;28755;51.478;5.702;2023-06-14T02:29:28;17.40;98.10
43151;DHT22;28755;51.478;5.702;2023-06-14T02:31:54;17.40;98.30
43151;DHT22;28755;51.478;5.702;2023-06-14T02:34:19;17.40;98.30
43151;DHT22;28755;51.478;5.702;2023-06-14T02:36:47;17.30;98.30
43151;DHT22;28755;51.478;5.702;2023-06-14T02:39:13;17.30;98.30
43151;DHT22;28755;51.478;5.702;2023-06-14T02:41:39;17.30;98.50
43151;DHT22;28755;51.478;5.702;2023-06-14T02:44:05;17.30;98.60
43151;DHT22;28755;51.478;5.702;2023-06-14T02:46:31;17.30;98.50
43151;DHT22;28755;51.478;5.702;2023-06-14T02:48:57;17.30;98.60
43151;DHT22;28755;51.478;5.702;2023-06-14T02:51:22;17.20;98.90
43151;DHT22;28755;51.478;5.702;2023-06-14T02:53:48;17.20;98.70
43151;DHT22;28755;51.478;5.702;2023-06-14T02:56:13;17.20;98.90
43151;DHT22;28755;51.478;5.702;2023-06-14T02:58:39;17.10;98.90
43151;DHT22;28755;51.478;5.702;2023-06-14T03:01:06;17.20;99.30
43151;DHT22;28755;51.478;5.702;2023-06-14T03:03:33;17.10;99.00
43151;DHT22;28755;51.478;5.702;2023-06-14T03:05:58;17.10;99.20
43151;DHT22;28755;51.478;5.702;2023-06-14T03:08:30;17.10;99.30
43151;DHT22;28755;51.478;5.702;2023-06-14T03:10:57;17.10;99.40
43151;DHT22;28755;51.478;5.702;2023-06-14T03:13:23;17.00;99.30
43151;DHT22;28755;51.478;5.702;2023-06-14T03:15:48;17.00;99.40
43151;DHT22;28755;51.478;5.702;2023-06-14T03:18:17;17.10;99.70
43151;DHT22;28755;51.478;5.702;2023-06-14T03:20:42;17.00;99.70
43151;DHT22;28755;51.478;5.702;2023-06-14T03:23:11;17.00;99.80
43151;DHT22;28755;51.478;5.702;2023-06-14T03:25:37;17.00;99.90
43151;DHT22;28755;51.478;5.702;2023-06-14T03:28:04;17.00;99.90
43151;DHT22;28755;51.478;5.702;2023-06-14T03:30:31;17.00;99.90
43151;DHT22;28755;51.478;5.702;2023-06-14T03:32:57;16.90;99.90
43151;DHT22;28755;51.478;5.702;2023-06-14T03:35:23;16.90;99.90
43151;DHT22;28755;51.478;5.702;2023-06-14T03:37:49;16.90;99.90
43151;DHT22;28755;51.478;5.702;2023-06-14T03:40:17;16.90;99.90
43151;DHT22;28755;51.478;5.702;2023-06-14T03:42:43;16.80;99.90
43151;DHT22;28755;51.478;5.702;2023-06-14T03:45:08;16.90;99.90
43151;DHT22;28755;51.478;5.702;2023-06-14T03:47:34;16.80;99.90
43151;DHT22;28755;51.478;5.702;2023-06-14T03:50:04;16.90;99.90
43151;DHT22;28755;51.478;5.702;2023-06-14T03:52:30;16.90;99.90
43151;DHT22;28755;51.478;5.702;2023-06-14T03:54:56;16.90;99.90
43151;DHT22;28755;51.478;5.702;2023-06-14T03:57:23;16.90;99.90
43151;DHT22;28755;51.478;5.702;2023-06-14T03:59:49;16.90;99.90
43151;DHT22;28755;51.478;5.702;2023-06-14T04:02:15;16.90;99.90
43151;DHT22;28755;51.478;5.702;2023-06-14T04:04:42;16.90;99.90
43151;DHT22;28755;51.478;5.702;2023-06-14T04:07:10;16.90;99.90
43151;DHT22;28755;51.478;5.702;2023-06-14T04:09:37;17.00;99.90
43151;DHT22;28755;51.478;5.702;2023-06-14T04:12:03;17.00;99.90
43151;DHT22;28755;51.478;5.702;2023-06-14T04:14:29;17.00;99.90
43151;DHT22;28755;51.478;5.702;2023-06-14T04:16:56;17.00;99.90
43151;DHT22;28755;51.478;5.702;2023-06-14T04:19:21;17.00;99.90
43151;DHT22;28755;51.478;5.702;2023-06-14T04:21:47;17.10;99.90
43151;DHT22;28755;51.478;5.702;2023-06-14T04:24:13;17.10;99.90
43151;DHT22;28755;51.478;5.702;2023-06-14T04:26:43;17.20;99.90
43151;DHT22;28755;51.478;5.702;2023-06-14T04:29:13;17.60;99.90
43151;DHT22;28755;51.478;5.702;2023-06-14T04:31:45;17.80;99.90
43151;DHT22;28755;51.478;5.702;2023-06-14T04:34:11;18.00;99.90
43151;DHT22;28755;51.478;5.702;2023-06-14T04:36:41;18.10;99.90
43151;DHT22;28755;51.478;5.702;2023-06-14T04:39:08;18.20;99.90
43151;DHT22;28755;51.478;5.702;2023-06-14T04:41:34;18.20;99.90
43151;DHT22;28755;51.478;5.702;2023-06-14T04:44:00;18.20;99.90
43151;DHT22;28755;51.478;5.702;2023-06-14T04:46:29;18.20;99.90
43151;DHT22;28755;51.478;5.702;2023-06-14T04:48:57;18.30;99.90
43151;DHT22;28755;51.478;5.702;2023-06-14T04:51:23;18.50;99.90
43151;DHT22;28755;51.478;5.702;2023-06-14T04:53:56;18.40;99.90
43151;DHT22;28755;51.478;5.702;2023-06-14T04:56:24;18.30;99.90
43151;DHT22;28755;51.478;5.702;2023-06-14T04:58:50;18.30;99.90
43151;DHT22;28755;51.478;5.702;2023-06-14T05:01:16;18.20;99.90
43151;DHT22;28755;51.478;5.702;2023-06-14T05:03:41;18.30;99.90
43151;DHT22;28755;51.478;5.702;2023-06-14T05:06:10;18.20;99.90
43151;DHT22;28755;51.478;5.702;2023-06-14T05:08:36;18.20;99.90
43151;DHT22;28755;51.478;5.702;2023-06-14T05:11:02;18.30;99.90
43151;DHT22;28755;51.478;5.702;2023-06-14T05:13:28;18.30;99.90
43151;DHT22;28755;51.478;5.702;2023-06-14T05:15:54;18.40;99.90
43151;DHT22;28755;51.478;5.702;2023-06-14T05:18:19;18.40;99.90
43151;DHT22;28755;51.478;5.702;2023-06-14T05:20:45;18.50;99.90
43151;DHT22;28755;51.478;5.702;2023-06-14T05:23:11;18.60;99.90
43151;DHT22;28755;51.478;5.702;2023-06-14T05:25:45;18.60;99.90
43151;DHT22;28755;51.478;5.702;2023-06-14T05:28:11;18.70;99.90
43151;DHT22;28755;51.478;5.702;2023-06-14T05:30:38;18.70;99.90
43151;DHT22;28755;51.478;5.702;2023-06-14T05:33:04;18.80;99.90
43151;DHT22;28755;51.478;5.702;2023-06-14T05:35:29;19.00;99.90
43151;DHT22;28755;51.478;5.702;2023-06-14T05:37:55;19.00;99.70
43151;DHT22;28755;51.478;5.702;2023-06-14T05:40:20;19.00;99.70
43151;DHT22;28755;51.478;5.702;2023-06-14T05:42:46;19.10;99.60
43151;DHT22;28755;51.478;5.702;2023-06-14T05:45:11;19.10;99.30
43151;DHT22;28755;51.478;5.702;2023-06-14T05:47:37;19.10;99.20
43151;DHT22;28755;51.478;5.702;2023-06-14T05:50:03;19.30;99.50
43151;DHT22;28755;51.478;5.702;2023-06-14T05:52:28;19.40;99.10
43151;DHT22;28755;51.478;5.702;2023-06-14T05:54:55;19.60;99.10
43151;DHT22;28755;51.478;5.702;2023-06-14T05:57:21;19.80;98.70
43151;DHT22;28755;51.478;5.702;2023-06-14T05:59:47;19.80;98.60
43151;DHT22;28755;51.478;5.702;2023-06-14T06:02:12;19.90;98.70
43151;DHT22;28755;51.478;5.702;2023-06-14T06:04:38;20.00;98.40
43151;DHT22;28755;51.478;5.702;2023-06-14T06:07:03;20.20;98.20
43151;DHT22;28755;51.478;5.702;2023-06-14T06:09:30;20.10;98.20
43151;DHT22;28755;51.478;5.702;2023-06-14T06:11:56;20.10;98.10
43151;DHT22;28755;51.478;5.702;2023-06-14T06:14:21;20.20;98.10
43151;DHT22;28755;51.478;5.702;2023-06-14T06:16:47;20.40;98.30
43151;DHT22;28755;51.478;5.702;2023-06-14T06:19:12;20.60;97.70
43151;DHT22;28755;51.478;5.702;2023-06-14T06:21:38;20.60;97.30
43151;DHT22;28755;51.478;5.702;2023-06-14T06:24:05;20.90;97.40
43151;DHT22;28755;51.478;5.702;2023-06-14T06:26:31;21.00;96.90
43151;DHT22;28755;51.478;5.702;2023-06-14T06:28:57;21.10;96.80
43151;DHT22;28755;51.478;5.702;2023-06-14T06:31:23;21.20;96.80
43151;DHT22;28755;51.478;5.702;2023-06-14T06:33:49;21.30;96.30
43151;DHT22;28755;51.478;5.702;2023-06-14T06:36:15;21.60;96.20
43151;DHT22;28755;51.478;5.702;2023-06-14T06:38:42;21.60;95.70
43151;DHT22;28755;51.478;5.702;2023-06-14T06:41:07;21.70;95.30
43151;DHT22;28755;51.478;5.702;2023-06-14T06:43:33;21.80;95.10
43151;DHT22;28755;51.478;5.702;2023-06-14T06:45:58;22.00;94.70
43151;DHT22;28755;51.478;5.702;2023-06-14T06:48:24;22.00;94.60
43151;DHT22;28755;51.478;5.702;2023-06-14T06:50:50;22.00;94.50
43151;DHT22;28755;51.478;5.702;2023-06-14T06:53:16;22.10;94.30
43151;DHT22;28755;51.478;5.702;2023-06-14T06:55:44;22.30;94.30
43151;DHT22;28755;51.478;5.702;2023-06-14T06:58:09;22.30;94.00
43151;DHT22;28755;51.478;5.702;2023-06-14T07:00:35;22.40;94.00
43151;DHT22;28755;51.478;5.702;2023-06-14T07:03:00;22.70;93.70
43151;DHT22;28755;51.478;5.702;2023-06-14T07:05:26;22.90;93.60
43151;DHT22;28755;51.478;5.702;2023-06-14T07:07:52;23.00;93.40
43151;DHT22;28755;51.478;5.702;2023-06-14T07:10:18;23.10;93.20
43151;DHT22;28755;51.478;5.702;2023-06-14T07:12:43;23.10;92.70
43151;DHT22;28755;51.478;5.702;2023-06-14T07:15:09;23.00;92.90
43151;DHT22;28755;51.478;5.702;2023-06-14T07:17:35;23.10;92.80
43151;DHT22;28755;51.478;5.702;2023-06-14T07:20:03;23.20;92.70
43151;DHT22;28755;51.478;5.702;2023-06-14T07:22:41;23.20;92.50
43151;DHT22;28755;51.478;5.702;2023-06-14T07:25:11;23.40;92.30
43151;DHT22;28755;51.478;5.702;2023-06-14T07:27:43;23.60;92.00
43151;DHT22;28755;51.478;5.702;2023-06-14T07:30:09;23.80;92.00
43151;DHT22;28755;51.478;5.702;2023-06-14T07:32:34;24.00;92.20
43151;DHT22;28755;51.478;5.702;2023-06-14T07:35:00;24.30;92.00
43151;DHT22;28755;51.478;5.702;2023-06-14T07:37:26;24.20;91.30
43151;DHT22;28755;51.478;5.702;2023-06-14T07:39:51;24.20;91.40
43151;DHT22;28755;51.478;5.702;2023-06-14T07:42:17;24.30;91.20
43151;DHT22;28755;51.478;5.702;2023-06-14T07:44:42;24.50;91.30
43151;DHT22;28755;51.478;5.702;2023-06-14T07:47:08;24.30;90.90
43151;DHT22;28755;51.478;5.702;2023-06-14T07:49:33;24.40;90.90
43151;DHT22;28755;51.478;5.702;2023-06-14T07:51:59;24.70;91.00
43151;DHT22;28755;51.478;5.702;2023-06-14T07:54:24;24.90;90.70
43151;DHT22;28755;51.478;5.702;2023-06-14T07:56:52;25.10;90.40
43151;DHT22;28755;51.478;5.702;2023-06-14T07:59:17;25.20;90.20
43151;DHT22;28755;51.478;5.702;2023-06-14T08:01:43;25.60;89.50
43151;DHT22;28755;51.478;5.702;2023-06-14T08:04:13;25.40;88.90
43151;DHT22;28755;51.478;5.702;2023-06-14T08:06:38;25.40;89.20
43151;DHT22;28755;51.478;5.702;2023-06-14T08:09:04;25.60;88.50
43151;DHT22;28755;51.478;5.702;2023-06-14T08:11:30;25.80;87.50
43151;DHT22;28755;51.478;5.702;2023-06-14T08:13:56;26.00;87.40
43151;DHT22;28755;51.478;5.702;2023-06-14T08:16:22;26.10;86.50
43151;DHT22;28755;51.478;5.702;2023-06-14T08:18:47;26.10;86.60
43151;DHT22;28755;51.478;5.702;2023-06-14T08:21:13;26.10;86.40
43151;DHT22;28755;51.478;5.702;2023-06-14T08:23:40;26.30;86.40
43151;DHT22;28755;51.478;5.702;2023-06-14T08:26:07;26.20;86.20
43151;DHT22;28755;51.478;5.702;2023-06-14T08:28:32;26.30;86.10
43151;DHT22;28755;51.478;5.702;2023-06-14T08:30:58;26.70;86.10
43151;DHT22;28755;51.478;5.702;2023-06-14T08:33:23;26.80;86.10
43151;DHT22;28755;51.478;5.702;2023-06-14T08:35:49;27.10;86.40
43151;DHT22;28755;51.478;5.702;2023-06-14T08:38:14;27.10;85.70
43151;DHT22;28755;51.478;5.702;2023-06-14T08:40:41;27.50;84.50
43151;DHT22;28755;51.478;5.702;2023-06-14T08:43:07;27.90;84.70
43151;DHT22;28755;51.478;5.702;2023-06-14T08:45:33;28.60;83.60
43151;DHT22;28755;51.478;5.702;2023-06-14T08:47:59;28.50;82.00
43151;DHT22;28755;51.478;5.702;2023-06-14T08:50:25;28.30;81.30
43151;DHT22;28755;51.478;5.702;2023-06-14T08:52:54;28.30;81.50
43151;DHT22;28755;51.478;5.702;2023-06-14T08:55:22;29.00;81.10
43151;DHT22;28755;51.478;5.702;2023-06-14T08:57:51;29.50;80.10
43151;DHT22;28755;51.478;5.702;2023-06-14T09:00:19;29.40;79.10
43151;DHT22;28755;51.478;5.702;2023-06-14T09:02:46;28.90;79.40
43151;DHT22;28755;51.478;5.702;2023-06-14T09:05:12;29.30;79.50
43151;DHT22;28755;51.478;5.702;2023-06-14T09:07:43;29.10;77.20
43151;DHT22;28755;51.478;5.702;2023-06-14T09:10:11;29.40;77.70
43151;DHT22;28755;51.478;5.702;2023-06-14T09:12:37;29.40;76.70
43151;DHT22;28755;51.478;5.702;2023-06-14T09:15:03;29.80;76.40
43151;DHT22;28755;51.478;5.702;2023-06-14T09:17:35;29.40;76.40
43151;DHT22;28755;51.478;5.702;2023-06-14T09:20:01;29.70;76.00
43151;DHT22;28755;51.478;5.702;2023-06-14T09:22:30;29.90;75.80
43151;DHT22;28755;51.478;5.702;2023-06-14T09:24:56;30.30;75.10
43151;DHT22;28755;51.478;5.702;2023-06-14T09:27:21;30.00;74.70
43151;DHT22;28755;51.478;5.702;2023-06-14T09:29:47;29.70;73.90
43151;DHT22;28755;51.478;5.702;2023-06-14T09:32:12;29.20;73.80
43151;DHT22;28755;51.478;5.702;2023-06-14T09:34:38;29.30;74.60
43151;DHT22;28755;51.478;5.702;2023-06-14T09:37:04;29.80;74.50
43151;DHT22;28755;51.478;5.702;2023-06-14T09:39:30;29.80;73.70
43151;DHT22;28755;51.478;5.702;2023-06-14T09:41:55;30.30;73.50
43151;DHT22;28755;51.478;5.702;2023-06-14T09:44:21;29.90;72.50
43151;DHT22;28755;51.478;5.702;2023-06-14T09:46:50;29.90;72.60
43151;DHT22;28755;51.478;5.702;2023-06-14T09:49:16;30.50;73.10
43151;DHT22;28755;51.478;5.702;2023-06-14T09:51:43;30.60;72.60
43151;DHT22;28755;51.478;5.702;2023-06-14T09:54:18;30.80;72.50
43151;DHT22;28755;51.478;5.702;2023-06-14T09:56:47;30.70;73.10
43151;DHT22;28755;51.478;5.702;2023-06-14T09:59:13;31.30;73.20
43151;DHT22;28755;51.478;5.702;2023-06-14T10:01:42;31.70;72.10
43151;DHT22;28755;51.478;5.702;2023-06-14T10:04:09;31.90;72.10
43151;DHT22;28755;51.478;5.702;2023-06-14T10:06:46;31.50;71.50
43151;DHT22;28755;51.478;5.702;2023-06-14T10:09:12;31.90;72.10
43151;DHT22;28755;51.478;5.702;2023-06-14T10:11:38;32.70;71.80
43151;DHT22;28755;51.478;5.702;2023-06-14T10:14:10;32.80;71.30
43151;DHT22;28755;51.478;5.702;2023-06-14T10:16:42;32.60;70.60
43151;DHT22;28755;51.478;5.702;2023-06-14T10:22:04;32.80;71.20
43151;DHT22;28755;51.478;5.702;2023-06-14T10:24:40;32.90;71.20
43151;DHT22;28755;51.478;5.702;2023-06-14T10:27:07;32.60;71.10
43151;DHT22;28755;51.478;5.702;2023-06-14T10:32:24;33.40;70.60
43151;DHT22;28755;51.478;5.702;2023-06-14T10:35:06;33.50;71.10
43151;DHT22;28755;51.478;5.702;2023-06-14T10:37:35;34.30;70.40
43151;DHT22;28755;51.478;5.702;2023-06-14T10:40:01;33.70;70.10
43151;DHT22;28755;51.478;5.702;2023-06-14T10:42:31;33.70;70.70
43151;DHT22;28755;51.478;5.702;2023-06-14T10:44:57;33.70;71.30
43151;DHT22;28755;51.478;5.702;2023-06-14T10:47:30;33.20;70.80
43151;DHT22;28755;51.478;5.702;2023-06-14T10:52:28;34.20;71.20
43151;DHT22;28755;51.478;5.702;2023-06-14T10:57:27;33.50;70.30
43151;DHT22;28755;51.478;5.702;2023-06-14T10:59:52;33.80;70.70
43151;DHT22;28755;51.478;5.702;2023-06-14T11:02:45;35.10;69.90
43151;DHT22;28755;51.478;5.702;2023-06-14T11:05:14;34.60;69.30
43151;DHT22;28755;51.478;5.702;2023-06-14T11:10:37;34.50;70.40
43151;DHT22;28755;51.478;5.702;2023-06-14T11:13:03;35.60;69.90
43151;DHT22;28755;51.478;5.702;2023-06-14T11:15:36;35.70;69.80
43151;DHT22;28755;51.478;5.702;2023-06-14T11:18:05;35.90;70.40
43151;DHT22;28755;51.478;5.702;2023-06-14T11:20:32;35.60;69.90
43151;DHT22;28755;51.478;5.702;2023-06-14T11:22:58;35.10;69.90
43151;DHT22;28755;51.478;5.702;2023-06-14T11:25:24;34.80;70.70
43151;DHT22;28755;51.478;5.702;2023-06-14T11:27:50;35.40;70.10
43151;DHT22;28755;51.478;5.702;2023-06-14T11:30:16;36.00;69.40
43151;DHT22;28755;51.478;5.702;2023-06-14T11:32:42;35.30;68.90
43151;DHT22;28755;51.478;5.702;2023-06-14T11:35:08;34.90;70.30
43151;DHT22;28755;51.478;5.702;2023-06-14T11:37:36;34.90;69.50
43151;DHT22;28755;51.478;5.702;2023-06-14T11:40:03;35.80;70.10
43151;DHT22;28755;51.478;5.702;2023-06-14T11:42:33;36.70;69.20
43151;DHT22;28755;51.478;5.702;2023-06-14T11:44:59;36.80;68.30
43151;DHT22;28755;51.478;5.702;2023-06-14T11:47:49;36.10;69.30
43151;DHT22;28755;51.478;5.702;2023-06-14T11:50:14;35.90;69.10
43151;DHT22;28755;51.478;5.702;2023-06-14T11:52:40;35.90;69.80
43151;DHT22;28755;51.478;5.702;2023-06-14T11:55:06;35.70;69.20
43151;DHT22;28755;51.478;5.702;2023-06-14T11:57:35;34.60;69.50
43151;DHT22;28755;51.478;5.702;2023-06-14T12:00:08;34.40;69.50
43151;DHT22;28755;51.478;5.702;2023-06-14T12:02:37;34.10;69.50
43151;DHT22;28755;51.478;5.702;2023-06-14T12:05:07;33.40;69.60
43151;DHT22;28755;51.478;5.702;2023-06-14T12:07:37;32.30;69.80
43151;DHT22;28755;51.478;5.702;2023-06-14T12:10:05;30.90;70.10
43151;DHT22;28755;51.478;5.702;2023-06-14T12:12:36;29.90;71.40
43151;DHT22;28755;51.478;5.702;2023-06-14T12:15:07;29.70;72.70
43151;DHT22;28755;51.478;5.702;2023-06-14T12:17:34;29.10;72.00
43151;DHT22;28755;51.478;5.702;2023-06-14T12:20:05;28.80;72.60
43151;DHT22;28755;51.478;5.702;2023-06-14T12:22:37;28.40;72.60
43151;DHT22;28755;51.478;5.702;2023-06-14T12:25:04;28.40;72.20
43151;DHT22;28755;51.478;5.702;2023-06-14T12:27:29;28.10;71.30
43151;DHT22;28755;51.478;5.702;2023-06-14T12:30:02;27.90;71.40
43151;DHT22;28755;51.478;5.702;2023-06-14T12:32:28;27.70;71.70
43151;DHT22;28755;51.478;5.702;2023-06-14T12:34:55;27.70;71.90
43151;DHT22;28755;51.478;5.702;2023-06-14T12:37:20;27.40;72.30
43151;DHT22;28755;51.478;5.702;2023-06-14T12:39:46;27.50;73.00
43151;DHT22;28755;51.478;5.702;2023-06-14T12:42:11;27.80;73.20
43151;DHT22;28755;51.478;5.702;2023-06-14T12:44:38;27.50;71.50
43151;DHT22;28755;51.478;5.702;2023-06-14T12:47:06;27.50;71.90
43151;DHT22;28755;51.478;5.702;2023-06-14T12:49:32;27.70;72.20
43151;DHT22;28755;51.478;5.702;2023-06-14T12:51:58;27.90;72.60
43151;DHT22;28755;51.478;5.702;2023-06-14T12:54:24;28.00;72.50
43151;DHT22;28755;51.478;5.702;2023-06-14T12:56:51;27.90;72.30
43151;DHT22;28755;51.478;5.702;2023-06-14T12:59:17;27.90;73.20
43151;DHT22;28755;51.478;5.702;2023-06-14T13:01:43;28.00;73.40
43151;DHT22;28755;51.478;5.702;2023-06-14T13:04:10;28.20;72.10
43151;DHT22;28755;51.478;5.702;2023-06-14T13:06:36;28.00;73.20
43151;DHT22;28755;51.478;5.702;2023-06-14T13:09:01;28.00;73.30
43151;DHT22;28755;51.478;5.702;2023-06-14T13:11:29;28.10;73.00
43151;DHT22;28755;51.478;5.702;2023-06-14T13:13:54;27.60;72.70
43151;DHT22;28755;51.478;5.702;2023-06-14T13:16:20;27.40;74.10
43151;DHT22;28755;51.478;5.702;2023-06-14T13:18:46;27.10;73.90
43151;DHT22;28755;51.478;5.702;2023-06-14T13:21:11;27.00;74.50
43151;DHT22;28755;51.478;5.702;2023-06-14T13:23:37;27.30;74.70
43151;DHT22;28755;51.478;5.702;2023-06-14T13:26:02;27.50;74.00
43151;DHT22;28755;51.478;5.702;2023-06-14T13:28:28;27.20;73.70
43151;DHT22;28755;51.478;5.702;2023-06-14T13:30:53;26.90;72.80
43151;DHT22;28755;51.478;5.702;2023-06-14T13:33:21;27.10;73.30
43151;DHT22;28755;51.478;5.702;2023-06-14T13:35:46;27.10;73.50
43151;DHT22;28755;51.478;5.702;2023-06-14T13:38:14;27.20;73.50
43151;DHT22;28755;51.478;5.702;2023-06-14T13:40:40;27.00;73.10
43151;DHT22;28755;51.478;5.702;2023-06-14T13:43:05;27.10;73.20
43151;DHT22;28755;51.478;5.702;2023-06-14T13:45:31;27.10;73.50
43151;DHT22;28755;51.478;5.702;2023-06-14T13:47:56;27.20;73.10
43151;DHT22;28755;51.478;5.702;2023-06-14T13:50:22;27.00;73.10
43151;DHT22;28755;51.478;5.702;2023-06-14T13:52:47;27.10;73.30
43151;DHT22;28755;51.478;5.702;2023-06-14T13:55:13;27.10;73.80
43151;DHT22;28755;51.478;5.702;2023-06-14T13:57:39;27.10;73.30
43151;DHT22;28755;51.478;5.702;2023-06-14T14:00:06;27.30;72.80
43151;DHT22;28755;51.478;5.702;2023-06-14T14:02:31;27.10;72.80
43151;DHT22;28755;51.478;5.702;2023-06-14T14:04:57;27.20;73.30
43151;DHT22;28755;51.478;5.702;2023-06-14T14:07:22;27.10;73.70
43151;DHT22;28755;51.478;5.702;2023-06-14T14:09:49;26.90;73.10
43151;DHT22;28755;51.478;5.702;2023-06-14T14:12:14;26.70;72.90
43151;DHT22;28755;51.478;5.702;2023-06-14T14:14:40;26.70;73.60
43151;DHT22;28755;51.478;5.702;2023-06-14T14:17:06;26.70;73.90
43151;DHT22;28755;51.478;5.702;2023-06-14T14:19:32;26.90;73.70
43151;DHT22;28755;51.478;5.702;2023-06-14T14:21:58;26.90;74.40
43151;DHT22;28755;51.478;5.702;2023-06-14T14:24:24;27.10;74.30
43151;DHT22;28755;51.478;5.702;2023-06-14T14:26:49;27.10;74.00
43151;DHT22;28755;51.478;5.702;2023-06-14T14:29:16;26.90;74.60
43151;DHT22;28755;51.478;5.702;2023-06-14T14:31:42;27.10;74.00
43151;DHT22;28755;51.478;5.702;2023-06-14T14:34:07;27.00;74.40
43151;DHT22;28755;51.478;5.702;2023-06-14T14:36:33;26.90;74.60
43151;DHT22;28755;51.478;5.702;2023-06-14T14:39:01;26.80;74.40
43151;DHT22;28755;51.478;5.702;2023-06-14T14:41:27;27.00;73.30
43151;DHT22;28755;51.478;5.702;2023-06-14T14:43:53;27.00;73.10
43151;DHT22;28755;51.478;5.702;2023-06-14T14:46:18;26.90;73.10
43151;DHT22;28755;51.478;5.702;2023-06-14T14:48:44;27.00;73.40
43151;DHT22;28755;51.478;5.702;2023-06-14T14:51:09;27.10;73.40
43151;DHT22;28755;51.478;5.702;2023-06-14T14:53:35;27.10;74.00
43151;DHT22;28755;51.478;5.702;2023-06-14T14:56:00;27.00;75.00
43151;DHT22;28755;51.478;5.702;2023-06-14T14:58:26;27.00;74.80
43151;DHT22;28755;51.478;5.702;2023-06-14T15:00:52;26.90;74.80
43151;DHT22;28755;51.478;5.702;2023-06-14T15:03:18;26.70;74.50
43151;DHT22;28755;51.478;5.702;2023-06-14T15:05:43;26.50;74.90
43151;DHT22;28755;51.478;5.702;2023-06-14T15:08:09;26.50;75.10
43151;DHT22;28755;51.478;5.702;2023-06-14T15:10:41;26.60;74.90
43151;DHT22;28755;51.478;5.702;2023-06-14T15:13:09;26.70;74.60
43151;DHT22;28755;51.478;5.702;2023-06-14T15:15:35;26.70;75.20
43151;DHT22;28755;51.478;5.702;2023-06-14T15:18:01;26.60;74.90
43151;DHT22;28755;51.478;5.702;2023-06-14T15:20:27;26.80;75.10
43151;DHT22;28755;51.478;5.702;2023-06-14T15:22:53;26.60;75.30
43151;DHT22;28755;51.478;5.702;2023-06-14T15:25:21;26.50;75.40
43151;DHT22;28755;51.478;5.702;2023-06-14T15:27:46;26.60;76.10
43151;DHT22;28755;51.478;5.702;2023-06-14T15:30:12;26.50;76.00
43151;DHT22;28755;51.478;5.702;2023-06-14T15:32:38;26.50;75.70
43151;DHT22;28755;51.478;5.702;2023-06-14T15:35:04;26.70;75.00
43151;DHT22;28755;51.478;5.702;2023-06-14T15:37:30;26.40;75.40
43151;DHT22;28755;51.478;5.702;2023-06-14T15:39:55;26.50;75.50
43151;DHT22;28755;51.478;5.702;2023-06-14T15:42:21;26.70;75.60